sensor_id;sensor_type;location;lat;lon;timestamp;P1;durP1;ratioP1;P2;durP2;ratioP2
6376;SDS011;3221;48.858;10.128;2023-07-13T00:01:52;4.27;;;3.30;;
6376;SDS011;3221;48.858;10.128;2023-07-13T00:04:21;5.53;;;3.57;;
6376;SDS011;3221;48.858;10.128;2023-07-13T00:06:51;4.83;;;4.03;;
6376;SDS011;3221;48.858;10.128;2023-07-13T00:09:19;4.30;;;3.73;;
6376;SDS011;3221;48.858;10.128;2023-07-13T00:11:51;3.40;;;3.10;;
6376;SDS011;3221;48.858;10.128;2023-07-13T00:14:20;4.17;;;3.10;;
6376;SDS011;3221;48.858;10.128;2023-07-13T00:16:47;3.37;;;2.93;;
6376;SDS011;3221;48.858;10.128;2023-07-13T00:19:14;3.77;;;2.97;;
6376;SDS011;3221;48.858;10.128;2023-07-13T00:21:42;4.40;;;2.97;;
6376;SDS011;3221;48.858;10.128;2023-07-13T00:24:11;3.83;;;2.80;;
6376;SDS011;3221;48.858;10.128;2023-07-13T00:26:40;4.27;;;2.90;;
6376;SDS011;3221;48.858;10.128;2023-07-13T00:29:11;4.63;;;2.70;;
6376;SDS011;3221;48.858;10.128;2023-07-13T00:31:38;4.23;;;2.70;;
6376;SDS011;3221;48.858;10.128;2023-07-13T00:34:05;4.13;;;2.70;;
6376;SDS011;3221;48.858;10.128;2023-07-13T00:36:32;2.90;;;2.30;;
6376;SDS011;3221;48.858;10.128;2023-07-13T00:38:59;3.67;;;2.50;;
6376;SDS011;3221;48.858;10.128;2023-07-13T00:41:26;3.73;;;2.67;;
6376;SDS011;3221;48.858;10.128;2023-07-13T00:43:53;3.40;;;2.10;;
6376;SDS011;3221;48.858;10.128;2023-07-13T00:46:21;3.03;;;2.20;;
6376;SDS011;3221;48.858;10.128;2023-07-13T00:48:49;3.03;;;2.33;;
6376;SDS011;3221;48.858;10.128;2023-07-13T00:51:17;2.87;;;2.60;;
6376;SDS011;3221;48.858;10.128;2023-07-13T00:53:48;2.70;;;2.40;;
6376;SDS011;3221;48.858;10.128;2023-07-13T00:56:17;6.37;;;2.43;;
6376;SDS011;3221;48.858;10.128;2023-07-13T00:58:44;2.73;;;2.53;;
6376;SDS011;3221;48.858;10.128;2023-07-13T01:01:11;5.03;;;2.50;;
6376;SDS011;3221;48.858;10.128;2023-07-13T01:03:39;3.00;;;2.70;;
6376;SDS011;3221;48.858;10.128;2023-07-13T01:06:07;3.87;;;2.70;;
6376;SDS011;3221;48.858;10.128;2023-07-13T01:08:35;3.17;;;2.87;;
6376;SDS011;3221;48.858;10.128;2023-07-13T01:11:02;4.83;;;2.87;;
6376;SDS011;3221;48.858;10.128;2023-07-13T01:13:29;2.63;;;2.40;;
6376;SDS011;3221;48.858;10.128;2023-07-13T01:15:57;3.53;;;3.00;;
6376;SDS011;3221;48.858;10.128;2023-07-13T01:18:27;4.03;;;2.73;;
6376;SDS011;3221;48.858;10.128;2023-07-13T01:21:03;2.73;;;2.53;;
6376;SDS011;3221;48.858;10.128;2023-07-13T01:23:31;3.97;;;2.87;;
6376;SDS011;3221;48.858;10.128;2023-07-13T01:25:58;4.57;;;2.30;;
6376;SDS011;3221;48.858;10.128;2023-07-13T01:28:26;4.43;;;2.33;;
6376;SDS011;3221;48.858;10.128;2023-07-13T01:30:55;4.33;;;2.00;;
6376;SDS011;3221;48.858;10.128;2023-07-13T01:33:23;2.87;;;2.13;;
6376;SDS011;3221;48.858;10.128;2023-07-13T01:35:50;3.17;;;1.87;;
6376;SDS011;3221;48.858;10.128;2023-07-13T01:38:18;2.37;;;2.13;;
6376;SDS011;3221;48.858;10.128;2023-07-13T01:40:47;3.20;;;2.00;;
6376;SDS011;3221;48.858;10.128;2023-07-13T01:43:14;3.53;;;2.23;;
6376;SDS011;3221;48.858;10.128;2023-07-13T01:45:41;2.30;;;1.90;;
6376;SDS011;3221;48.858;10.128;2023-07-13T01:48:11;3.57;;;1.80;;
6376;SDS011;3221;48.858;10.128;2023-07-13T01:50:40;3.97;;;2.20;;
6376;SDS011;3221;48.858;10.128;2023-07-13T01:53:08;3.40;;;1.80;;
6376;SDS011;3221;48.858;10.128;2023-07-13T01:55:35;2.90;;;2.00;;
6376;SDS011;3221;48.858;10.128;2023-07-13T01:58:04;3.63;;;1.97;;
6376;SDS011;3221;48.858;10.128;2023-07-13T02:00:31;2.23;;;1.77;;
6376;SDS011;3221;48.858;10.128;2023-07-13T02:02:58;2.00;;;1.90;;
6376;SDS011;3221;48.858;10.128;2023-07-13T02:05:25;2.90;;;1.80;;
6376;SDS011;3221;48.858;10.128;2023-07-13T02:07:52;4.13;;;1.73;;
6376;SDS011;3221;48.858;10.128;2023-07-13T02:10:19;3.00;;;1.87;;
6376;SDS011;3221;48.858;10.128;2023-07-13T02:12:47;2.40;;;1.70;;
6376;SDS011;3221;48.858;10.128;2023-07-13T02:15:16;5.20;;;1.97;;
6376;SDS011;3221;48.858;10.128;2023-07-13T02:17:43;5.13;;;2.00;;
6376;SDS011;3221;48.858;10.128;2023-07-13T02:20:10;3.00;;;1.90;;
6376;SDS011;3221;48.858;10.128;2023-07-13T02:22:37;3.03;;;1.70;;
6376;SDS011;3221;48.858;10.128;2023-07-13T02:25:04;3.80;;;1.90;;
6376;SDS011;3221;48.858;10.128;2023-07-13T02:27:32;2.33;;;1.80;;
6376;SDS011;3221;48.858;10.128;2023-07-13T02:29:59;4.07;;;1.70;;
6376;SDS011;3221;48.858;10.128;2023-07-13T02:32:26;6.00;;;1.90;;
6376;SDS011;3221;48.858;10.128;2023-07-13T02:34:53;2.20;;;1.93;;
6376;SDS011;3221;48.858;10.128;2023-07-13T02:37:19;3.50;;;2.20;;
6376;SDS011;3221;48.858;10.128;2023-07-13T02:39:47;1.97;;;1.70;;
6376;SDS011;3221;48.858;10.128;2023-07-13T02:42:14;1.93;;;1.80;;
6376;SDS011;3221;48.858;10.128;2023-07-13T02:44:43;3.97;;;2.03;;
6376;SDS011;3221;48.858;10.128;2023-07-13T02:47:10;4.77;;;2.00;;
6376;SDS011;3221;48.858;10.128;2023-07-13T02:49:37;2.10;;;1.70;;
6376;SDS011;3221;48.858;10.128;2023-07-13T02:52:04;2.30;;;1.93;;
6376;SDS011;3221;48.858;10.128;2023-07-13T02:54:31;2.77;;;2.20;;
6376;SDS011;3221;48.858;10.128;2023-07-13T02:56:58;4.63;;;1.90;;
6376;SDS011;3221;48.858;10.128;2023-07-13T02:59:25;3.60;;;1.90;;
6376;SDS011;3221;48.858;10.128;2023-07-13T03:01:53;2.83;;;1.93;;
6376;SDS011;3221;48.858;10.128;2023-07-13T03:04:20;3.90;;;1.90;;
6376;SDS011;3221;48.858;10.128;2023-07-13T03:06:46;3.77;;;2.17;;
6376;SDS011;3221;48.858;10.128;2023-07-13T03:09:14;2.70;;;1.93;;
6376;SDS011;3221;48.858;10.128;2023-07-13T03:11:47;2.90;;;2.17;;
6376;SDS011;3221;48.858;10.128;2023-07-13T03:14:22;3.07;;;1.90;;
6376;SDS011;3221;48.858;10.128;2023-07-13T03:16:50;6.50;;;2.20;;
6376;SDS011;3221;48.858;10.128;2023-07-13T03:19:20;2.83;;;1.93;;
6376;SDS011;3221;48.858;10.128;2023-07-13T03:21:49;3.50;;;2.10;;
6376;SDS011;3221;48.858;10.128;2023-07-13T03:24:16;1.80;;;1.70;;
6376;SDS011;3221;48.858;10.128;2023-07-13T03:26:43;2.80;;;1.93;;
6376;SDS011;3221;48.858;10.128;2023-07-13T03:29:10;3.80;;;1.93;;
6376;SDS011;3221;48.858;10.128;2023-07-13T03:31:37;2.67;;;2.00;;
6376;SDS011;3221;48.858;10.128;2023-07-13T03:34:04;2.13;;;1.90;;
6376;SDS011;3221;48.858;10.128;2023-07-13T03:36:32;4.77;;;1.93;;
6376;SDS011;3221;48.858;10.128;2023-07-13T03:39:03;2.30;;;1.80;;
6376;SDS011;3221;48.858;10.128;2023-07-13T03:41:42;2.97;;;2.17;;
6376;SDS011;3221;48.858;10.128;2023-07-13T03:44:11;2.43;;;1.97;;
6376;SDS011;3221;48.858;10.128;2023-07-13T03:46:38;2.00;;;1.80;;
6376;SDS011;3221;48.858;10.128;2023-07-13T03:49:06;4.27;;;1.90;;
6376;SDS011;3221;48.858;10.128;2023-07-13T03:51:35;2.30;;;1.87;;
6376;SDS011;3221;48.858;10.128;2023-07-13T03:54:03;3.77;;;2.30;;
6376;SDS011;3221;48.858;10.128;2023-07-13T03:56:31;2.83;;;1.80;;
6376;SDS011;3221;48.858;10.128;2023-07-13T03:59:00;2.40;;;2.03;;
6376;SDS011;3221;48.858;10.128;2023-07-13T04:01:29;3.50;;;1.77;;
6376;SDS011;3221;48.858;10.128;2023-07-13T04:03:56;2.57;;;1.77;;
6376;SDS011;3221;48.858;10.128;2023-07-13T04:06:26;3.30;;;1.80;;
6376;SDS011;3221;48.858;10.128;2023-07-13T04:08:56;3.40;;;2.10;;
6376;SDS011;3221;48.858;10.128;2023-07-13T04:11:25;2.47;;;1.93;;
6376;SDS011;3221;48.858;10.128;2023-07-13T04:13:55;4.23;;;2.30;;
6376;SDS011;3221;48.858;10.128;2023-07-13T04:16:22;2.50;;;2.03;;
6376;SDS011;3221;48.858;10.128;2023-07-13T04:18:50;3.80;;;2.00;;
6376;SDS011;3221;48.858;10.128;2023-07-13T04:21:21;4.03;;;2.10;;
6376;SDS011;3221;48.858;10.128;2023-07-13T04:23:48;3.10;;;2.23;;
6376;SDS011;3221;48.858;10.128;2023-07-13T04:26:15;3.53;;;1.80;;
6376;SDS011;3221;48.858;10.128;2023-07-13T04:28:42;3.30;;;1.83;;
6376;SDS011;3221;48.858;10.128;2023-07-13T04:31:09;4.03;;;2.07;;
6376;SDS011;3221;48.858;10.128;2023-07-13T04:33:36;3.37;;;2.13;;
6376;SDS011;3221;48.858;10.128;2023-07-13T04:36:03;2.20;;;2.00;;
6376;SDS011;3221;48.858;10.128;2023-07-13T04:38:31;2.77;;;2.00;;
6376;SDS011;3221;48.858;10.128;2023-07-13T04:41:00;3.00;;;1.77;;
6376;SDS011;3221;48.858;10.128;2023-07-13T04:43:30;4.97;;;2.13;;
6376;SDS011;3221;48.858;10.128;2023-07-13T04:46:02;2.20;;;2.00;;
6376;SDS011;3221;48.858;10.128;2023-07-13T04:48:31;2.40;;;1.83;;
6376;SDS011;3221;48.858;10.128;2023-07-13T04:50:59;3.53;;;1.93;;
6376;SDS011;3221;48.858;10.128;2023-07-13T04:53:26;2.93;;;1.77;;
6376;SDS011;3221;48.858;10.128;2023-07-13T04:55:53;2.17;;;1.90;;
6376;SDS011;3221;48.858;10.128;2023-07-13T04:58:20;3.00;;;1.97;;
6376;SDS011;3221;48.858;10.128;2023-07-13T05:00:49;3.80;;;2.10;;
6376;SDS011;3221;48.858;10.128;2023-07-13T05:03:16;2.43;;;2.00;;
6376;SDS011;3221;48.858;10.128;2023-07-13T05:05:43;2.87;;;1.80;;
6376;SDS011;3221;48.858;10.128;2023-07-13T05:08:20;3.70;;;1.87;;
6376;SDS011;3221;48.858;10.128;2023-07-13T05:10:47;3.97;;;2.03;;
6376;SDS011;3221;48.858;10.128;2023-07-13T05:13:14;3.77;;;1.80;;
6376;SDS011;3221;48.858;10.128;2023-07-13T05:15:40;3.70;;;2.00;;
6376;SDS011;3221;48.858;10.128;2023-07-13T05:18:07;2.83;;;2.10;;
6376;SDS011;3221;48.858;10.128;2023-07-13T05:20:34;5.00;;;2.40;;
6376;SDS011;3221;48.858;10.128;2023-07-13T05:23:01;3.57;;;2.20;;
6376;SDS011;3221;48.858;10.128;2023-07-13T05:25:28;2.40;;;2.00;;
6376;SDS011;3221;48.858;10.128;2023-07-13T05:27:55;3.87;;;2.20;;
6376;SDS011;3221;48.858;10.128;2023-07-13T05:30:22;3.40;;;2.00;;
6376;SDS011;3221;48.858;10.128;2023-07-13T05:32:49;3.20;;;2.20;;
6376;SDS011;3221;48.858;10.128;2023-07-13T05:35:16;3.43;;;2.13;;
6376;SDS011;3221;48.858;10.128;2023-07-13T05:37:43;2.60;;;1.93;;
6376;SDS011;3221;48.858;10.128;2023-07-13T05:40:10;2.40;;;2.10;;
6376;SDS011;3221;48.858;10.128;2023-07-13T05:42:37;2.63;;;2.27;;
6376;SDS011;3221;48.858;10.128;2023-07-13T05:45:04;3.70;;;2.13;;
6376;SDS011;3221;48.858;10.128;2023-07-13T05:47:31;6.10;;;2.40;;
6376;SDS011;3221;48.858;10.128;2023-07-13T05:49:58;4.37;;;2.23;;
6376;SDS011;3221;48.858;10.128;2023-07-13T05:52:25;3.77;;;2.10;;
6376;SDS011;3221;48.858;10.128;2023-07-13T05:54:52;3.03;;;2.07;;
6376;SDS011;3221;48.858;10.128;2023-07-13T05:57:18;5.13;;;2.40;;
6376;SDS011;3221;48.858;10.128;2023-07-13T05:59:45;2.30;;;2.10;;
6376;SDS011;3221;48.858;10.128;2023-07-13T06:02:13;5.03;;;2.47;;
6376;SDS011;3221;48.858;10.128;2023-07-13T06:04:40;3.10;;;2.10;;
6376;SDS011;3221;48.858;10.128;2023-07-13T06:07:07;2.70;;;2.10;;
6376;SDS011;3221;48.858;10.128;2023-07-13T06:09:34;4.27;;;2.20;;
6376;SDS011;3221;48.858;10.128;2023-07-13T06:12:01;3.33;;;2.00;;
6376;SDS011;3221;48.858;10.128;2023-07-13T06:14:27;2.90;;;2.00;;
6376;SDS011;3221;48.858;10.128;2023-07-13T06:16:54;2.63;;;2.17;;
6376;SDS011;3221;48.858;10.128;2023-07-13T06:19:21;3.20;;;2.20;;
6376;SDS011;3221;48.858;10.128;2023-07-13T06:21:48;3.93;;;2.13;;
6376;SDS011;3221;48.858;10.128;2023-07-13T06:24:15;3.20;;;2.00;;
6376;SDS011;3221;48.858;10.128;2023-07-13T06:26:42;2.90;;;2.17;;
6376;SDS011;3221;48.858;10.128;2023-07-13T06:29:09;2.83;;;2.10;;
6376;SDS011;3221;48.858;10.128;2023-07-13T06:31:36;3.33;;;2.50;;
6376;SDS011;3221;48.858;10.128;2023-07-13T06:34:03;5.00;;;2.47;;
6376;SDS011;3221;48.858;10.128;2023-07-13T06:36:30;3.77;;;2.40;;
6376;SDS011;3221;48.858;10.128;2023-07-13T06:38:57;2.97;;;2.03;;
6376;SDS011;3221;48.858;10.128;2023-07-13T06:41:23;5.33;;;2.20;;
6376;SDS011;3221;48.858;10.128;2023-07-13T06:43:52;2.57;;;2.30;;
6376;SDS011;3221;48.858;10.128;2023-07-13T06:46:21;3.63;;;2.33;;
6376;SDS011;3221;48.858;10.128;2023-07-13T06:48:49;2.60;;;2.40;;
6376;SDS011;3221;48.858;10.128;2023-07-13T06:51:16;3.17;;;2.20;;
6376;SDS011;3221;48.858;10.128;2023-07-13T06:53:43;3.17;;;2.10;;
6376;SDS011;3221;48.858;10.128;2023-07-13T06:56:10;3.50;;;2.23;;
6376;SDS011;3221;48.858;10.128;2023-07-13T06:58:37;3.03;;;2.13;;
6376;SDS011;3221;48.858;10.128;2023-07-13T07:01:04;3.80;;;2.43;;
6376;SDS011;3221;48.858;10.128;2023-07-13T07:03:34;2.93;;;2.00;;
6376;SDS011;3221;48.858;10.128;2023-07-13T07:06:17;2.90;;;2.10;;
6376;SDS011;3221;48.858;10.128;2023-07-13T07:08:46;2.50;;;2.30;;
6376;SDS011;3221;48.858;10.128;2023-07-13T07:11:14;4.63;;;2.37;;
6376;SDS011;3221;48.858;10.128;2023-07-13T07:13:44;3.37;;;2.33;;
6376;SDS011;3221;48.858;10.128;2023-07-13T07:16:11;2.83;;;2.10;;
6376;SDS011;3221;48.858;10.128;2023-07-13T07:18:38;3.63;;;2.10;;
6376;SDS011;3221;48.858;10.128;2023-07-13T07:21:05;2.87;;;2.00;;
6376;SDS011;3221;48.858;10.128;2023-07-13T07:23:32;2.73;;;2.00;;
6376;SDS011;3221;48.858;10.128;2023-07-13T07:25:59;3.17;;;2.03;;
6376;SDS011;3221;48.858;10.128;2023-07-13T07:28:26;5.07;;;2.30;;
6376;SDS011;3221;48.858;10.128;2023-07-13T07:31:08;3.47;;;2.20;;
6376;SDS011;3221;48.858;10.128;2023-07-13T07:33:38;5.30;;;2.43;;
6376;SDS011;3221;48.858;10.128;2023-07-13T07:36:05;3.57;;;2.23;;
6376;SDS011;3221;48.858;10.128;2023-07-13T07:38:35;4.60;;;2.60;;
6376;SDS011;3221;48.858;10.128;2023-07-13T07:41:03;3.57;;;2.10;;
6376;SDS011;3221;48.858;10.128;2023-07-13T07:43:33;3.37;;;2.27;;
6376;SDS011;3221;48.858;10.128;2023-07-13T07:46:00;3.43;;;2.17;;
6376;SDS011;3221;48.858;10.128;2023-07-13T07:48:29;3.93;;;2.20;;
6376;SDS011;3221;48.858;10.128;2023-07-13T07:50:56;2.23;;;2.00;;
6376;SDS011;3221;48.858;10.128;2023-07-13T07:53:23;4.90;;;2.10;;
6376;SDS011;3221;48.858;10.128;2023-07-13T07:55:50;2.43;;;2.17;;
6376;SDS011;3221;48.858;10.128;2023-07-13T07:58:20;2.40;;;2.00;;
6376;SDS011;3221;48.858;10.128;2023-07-13T08:00:50;3.80;;;2.20;;
6376;SDS011;3221;48.858;10.128;2023-07-13T08:03:20;3.73;;;2.30;;
6376;SDS011;3221;48.858;10.128;2023-07-13T08:05:52;2.40;;;2.00;;
6376;SDS011;3221;48.858;10.128;2023-07-13T08:08:23;3.93;;;2.10;;
6376;SDS011;3221;48.858;10.128;2023-07-13T08:10:51;2.30;;;2.00;;
6376;SDS011;3221;48.858;10.128;2023-07-13T08:13:22;2.53;;;2.10;;
6376;SDS011;3221;48.858;10.128;2023-07-13T08:15:49;4.03;;;2.20;;
6376;SDS011;3221;48.858;10.128;2023-07-13T08:18:17;2.90;;;1.90;;
6376;SDS011;3221;48.858;10.128;2023-07-13T08:20:44;3.80;;;2.10;;
6376;SDS011;3221;48.858;10.128;2023-07-13T08:23:11;4.20;;;2.00;;
6376;SDS011;3221;48.858;10.128;2023-07-13T08:25:38;3.60;;;2.20;;
6376;SDS011;3221;48.858;10.128;2023-07-13T08:28:04;3.20;;;2.20;;
6376;SDS011;3221;48.858;10.128;2023-07-13T08:30:32;2.60;;;2.00;;
6376;SDS011;3221;48.858;10.128;2023-07-13T08:32:58;3.57;;;2.23;;
6376;SDS011;3221;48.858;10.128;2023-07-13T08:35:25;2.40;;;2.20;;
6376;SDS011;3221;48.858;10.128;2023-07-13T08:37:52;3.00;;;2.20;;
6376;SDS011;3221;48.858;10.128;2023-07-13T08:40:19;2.93;;;2.27;;
6376;SDS011;3221;48.858;10.128;2023-07-13T08:42:53;3.17;;;2.17;;
6376;SDS011;3221;48.858;10.128;2023-07-13T08:45:24;1.90;;;1.73;;
6376;SDS011;3221;48.858;10.128;2023-07-13T08:48:13;4.47;;;2.40;;
6376;SDS011;3221;48.858;10.128;2023-07-13T08:51:04;3.57;;;2.27;;
6376;SDS011;3221;48.858;10.128;2023-07-13T08:53:56;3.80;;;2.20;;
6376;SDS011;3221;48.858;10.128;2023-07-13T08:56:28;2.87;;;2.10;;
6376;SDS011;3221;48.858;10.128;2023-07-13T08:58:58;2.77;;;1.90;;
6376;SDS011;3221;48.858;10.128;2023-07-13T09:04:45;3.27;;;2.20;;
6376;SDS011;3221;48.858;10.128;2023-07-13T09:12:31;5.10;;;2.30;;
6376;SDS011;3221;48.858;10.128;2023-07-13T09:15:34;3.30;;;2.20;;
6376;SDS011;3221;48.858;10.128;2023-07-13T09:18:04;3.13;;;2.13;;
6376;SDS011;3221;48.858;10.128;2023-07-13T09:20:37;2.43;;;1.90;;
6376;SDS011;3221;48.858;10.128;2023-07-13T09:23:11;2.23;;;1.80;;
6376;SDS011;3221;48.858;10.128;2023-07-13T09:25:41;1.90;;;1.63;;
6376;SDS011;3221;48.858;10.128;2023-07-13T09:30:56;2.40;;;1.83;;
6376;SDS011;3221;48.858;10.128;2023-07-13T09:33:31;4.20;;;2.10;;
6376;SDS011;3221;48.858;10.128;2023-07-13T09:35:58;3.17;;;2.00;;
6376;SDS011;3221;48.858;10.128;2023-07-13T09:38:27;2.60;;;1.87;;
6376;SDS011;3221;48.858;10.128;2023-07-13T09:41:11;3.83;;;1.90;;
6376;SDS011;3221;48.858;10.128;2023-07-13T09:46:39;3.87;;;2.00;;
6376;SDS011;3221;48.858;10.128;2023-07-13T09:49:11;3.20;;;2.00;;
6376;SDS011;3221;48.858;10.128;2023-07-13T09:51:38;3.83;;;2.27;;
6376;SDS011;3221;48.858;10.128;2023-07-13T09:54:20;3.87;;;1.80;;
6376;SDS011;3221;48.858;10.128;2023-07-13T09:56:56;1.80;;;1.60;;
6376;SDS011;3221;48.858;10.128;2023-07-13T09:59:34;4.20;;;2.27;;
6376;SDS011;3221;48.858;10.128;2023-07-13T10:02:22;3.43;;;1.97;;
6376;SDS011;3221;48.858;10.128;2023-07-13T10:05:21;1.73;;;1.60;;
6376;SDS011;3221;48.858;10.128;2023-07-13T10:07:48;2.43;;;1.80;;
6376;SDS011;3221;48.858;10.128;2023-07-13T10:10:19;2.97;;;1.60;;
6376;SDS011;3221;48.858;10.128;2023-07-13T10:12:49;2.33;;;1.70;;
6376;SDS011;3221;48.858;10.128;2023-07-13T10:15:21;3.90;;;1.90;;
6376;SDS011;3221;48.858;10.128;2023-07-13T10:17:54;2.80;;;1.47;;
6376;SDS011;3221;48.858;10.128;2023-07-13T10:20:24;4.17;;;1.70;;
6376;SDS011;3221;48.858;10.128;2023-07-13T10:22:59;2.33;;;1.70;;
6376;SDS011;3221;48.858;10.128;2023-07-13T10:25:34;3.13;;;1.53;;
6376;SDS011;3221;48.858;10.128;2023-07-13T10:28:14;3.27;;;1.63;;
6376;SDS011;3221;48.858;10.128;2023-07-13T10:30:49;2.60;;;1.67;;
6376;SDS011;3221;48.858;10.128;2023-07-13T10:33:20;2.30;;;1.83;;
6376;SDS011;3221;48.858;10.128;2023-07-13T10:35:49;2.80;;;1.70;;
6376;SDS011;3221;48.858;10.128;2023-07-13T10:38:22;2.60;;;1.80;;
6376;SDS011;3221;48.858;10.128;2023-07-13T10:41:14;3.73;;;1.90;;
6376;SDS011;3221;48.858;10.128;2023-07-13T10:43:42;2.53;;;1.70;;
6376;SDS011;3221;48.858;10.128;2023-07-13T10:46:12;2.83;;;1.83;;
6376;SDS011;3221;48.858;10.128;2023-07-13T10:48:42;3.20;;;1.53;;
6376;SDS011;3221;48.858;10.128;2023-07-13T10:51:13;3.43;;;1.50;;
6376;SDS011;3221;48.858;10.128;2023-07-13T10:53:42;3.73;;;1.53;;
6376;SDS011;3221;48.858;10.128;2023-07-13T10:58:39;1.43;;;1.30;;
6376;SDS011;3221;48.858;10.128;2023-07-13T11:09:18;2.90;;;1.80;;
6376;SDS011;3221;48.858;10.128;2023-07-13T11:11:59;3.67;;;1.70;;
6376;SDS011;3221;48.858;10.128;2023-07-13T11:14:29;2.90;;;1.77;;
6376;SDS011;3221;48.858;10.128;2023-07-13T11:16:55;3.33;;;1.60;;
6376;SDS011;3221;48.858;10.128;2023-07-13T11:19:24;4.10;;;2.10;;
6376;SDS011;3221;48.858;10.128;2023-07-13T11:30:19;4.53;;;1.80;;
6376;SDS011;3221;48.858;10.128;2023-07-13T11:33:03;1.87;;;1.47;;
6376;SDS011;3221;48.858;10.128;2023-07-13T11:35:34;2.70;;;1.50;;
6376;SDS011;3221;48.858;10.128;2023-07-13T11:38:16;2.23;;;1.60;;
6376;SDS011;3221;48.858;10.128;2023-07-13T11:40:54;3.37;;;1.60;;
6376;SDS011;3221;48.858;10.128;2023-07-13T11:43:22;3.40;;;1.60;;
6376;SDS011;3221;48.858;10.128;2023-07-13T11:45:52;1.83;;;1.50;;
6376;SDS011;3221;48.858;10.128;2023-07-13T11:48:20;2.70;;;1.70;;
6376;SDS011;3221;48.858;10.128;2023-07-13T11:50:54;2.37;;;1.47;;
6376;SDS011;3221;48.858;10.128;2023-07-13T11:53:28;1.63;;;1.53;;
6376;SDS011;3221;48.858;10.128;2023-07-13T11:55:57;3.13;;;1.60;;
6376;SDS011;3221;48.858;10.128;2023-07-13T11:58:25;2.43;;;1.57;;
6376;SDS011;3221;48.858;10.128;2023-07-13T12:00:55;2.95;;;1.80;;
6376;SDS011;3221;48.858;10.128;2023-07-13T12:03:27;1.77;;;1.57;;
6376;SDS011;3221;48.858;10.128;2023-07-13T12:05:59;2.30;;;1.60;;
6376;SDS011;3221;48.858;10.128;2023-07-13T12:08:38;4.00;;;2.00;;
6376;SDS011;3221;48.858;10.128;2023-07-13T12:11:13;3.70;;;2.60;;
6376;SDS011;3221;48.858;10.128;2023-07-13T12:13:43;3.13;;;2.20;;
6376;SDS011;3221;48.858;10.128;2023-07-13T12:16:21;3.67;;;2.00;;
6376;SDS011;3221;48.858;10.128;2023-07-13T12:18:59;2.33;;;1.70;;
6376;SDS011;3221;48.858;10.128;2023-07-13T12:21:36;2.33;;;1.60;;
6376;SDS011;3221;48.858;10.128;2023-07-13T12:24:05;2.37;;;1.50;;
6376;SDS011;3221;48.858;10.128;2023-07-13T12:26:41;2.00;;;1.58;;
6376;SDS011;3221;48.858;10.128;2023-07-13T12:29:08;1.77;;;1.65;;
6376;SDS011;3221;48.858;10.128;2023-07-13T12:31:44;1.60;;;1.50;;
6376;SDS011;3221;48.858;10.128;2023-07-13T12:34:20;1.73;;;1.60;;
6376;SDS011;3221;48.858;10.128;2023-07-13T12:36:52;2.80;;;1.60;;
6376;SDS011;3221;48.858;10.128;2023-07-13T12:39:28;5.38;;;1.63;;
6376;SDS011;3221;48.858;10.128;2023-07-13T12:45:00;3.83;;;1.60;;
6376;SDS011;3221;48.858;10.128;2023-07-13T12:47:28;5.00;;;1.73;;
6376;SDS011;3221;48.858;10.128;2023-07-13T12:49:57;3.05;;;1.80;;
6376;SDS011;3221;48.858;10.128;2023-07-13T12:52:31;3.35;;;1.90;;
6376;SDS011;3221;48.858;10.128;2023-07-13T12:55:05;2.78;;;2.05;;
6376;SDS011;3221;48.858;10.128;2023-07-13T12:57:41;3.17;;;1.85;;
6376;SDS011;3221;48.858;10.128;2023-07-13T13:00:28;2.35;;;2.13;;
6376;SDS011;3221;48.858;10.128;2023-07-13T13:03:05;2.53;;;1.83;;
6376;SDS011;3221;48.858;10.128;2023-07-13T13:05:59;4.85;;;2.13;;
6376;SDS011;3221;48.858;10.128;2023-07-13T13:08:30;3.20;;;1.90;;
6376;SDS011;3221;48.858;10.128;2023-07-13T13:10:58;2.95;;;1.65;;
6376;SDS011;3221;48.858;10.128;2023-07-13T13:13:26;2.40;;;1.70;;
6376;SDS011;3221;48.858;10.128;2023-07-13T13:15:52;2.63;;;1.75;;
6376;SDS011;3221;48.858;10.128;2023-07-13T13:18:20;2.40;;;1.60;;
6376;SDS011;3221;48.858;10.128;2023-07-13T13:20:49;3.45;;;1.70;;
6376;SDS011;3221;48.858;10.128;2023-07-13T13:23:18;2.50;;;1.75;;
6376;SDS011;3221;48.858;10.128;2023-07-13T13:25:46;2.70;;;1.60;;
6376;SDS011;3221;48.858;10.128;2023-07-13T13:28:16;3.08;;;1.95;;
6376;SDS011;3221;48.858;10.128;2023-07-13T13:30:49;3.30;;;1.95;;
6376;SDS011;3221;48.858;10.128;2023-07-13T13:33:18;4.07;;;1.73;;
6376;SDS011;3221;48.858;10.128;2023-07-13T13:35:47;2.60;;;1.52;;
6376;SDS011;3221;48.858;10.128;2023-07-13T13:38:15;3.72;;;1.90;;
6376;SDS011;3221;48.858;10.128;2023-07-13T13:40:43;1.92;;;1.50;;
6376;SDS011;3221;48.858;10.128;2023-07-13T13:43:18;2.03;;;1.80;;
6376;SDS011;3221;48.858;10.128;2023-07-13T13:45:56;4.68;;;2.10;;
6376;SDS011;3221;48.858;10.128;2023-07-13T13:48:29;2.00;;;1.50;;
6376;SDS011;3221;48.858;10.128;2023-07-13T13:51:01;4.22;;;1.88;;
6376;SDS011;3221;48.858;10.128;2023-07-13T13:53:37;2.63;;;1.63;;
6376;SDS011;3221;48.858;10.128;2023-07-13T13:56:05;3.10;;;2.30;;
6376;SDS011;3221;48.858;10.128;2023-07-13T13:58:32;2.88;;;2.38;;
6376;SDS011;3221;48.858;10.128;2023-07-13T14:01:00;2.88;;;2.10;;
6376;SDS011;3221;48.858;10.128;2023-07-13T14:03:26;3.55;;;2.00;;
6376;SDS011;3221;48.858;10.128;2023-07-13T14:05:54;4.22;;;2.60;;
6376;SDS011;3221;48.858;10.128;2023-07-13T14:08:23;2.65;;;2.08;;
6376;SDS011;3221;48.858;10.128;2023-07-13T14:10:51;1.85;;;1.70;;
6376;SDS011;3221;48.858;10.128;2023-07-13T14:13:30;4.05;;;1.90;;
6376;SDS011;3221;48.858;10.128;2023-07-13T14:16:02;3.30;;;1.95;;
6376;SDS011;3221;48.858;10.128;2023-07-13T14:18:35;2.42;;;1.88;;
6376;SDS011;3221;48.858;10.128;2023-07-13T14:21:02;3.35;;;2.05;;
6376;SDS011;3221;48.858;10.128;2023-07-13T14:23:29;3.10;;;1.83;;
6376;SDS011;3221;48.858;10.128;2023-07-13T14:25:56;3.45;;;1.95;;
6376;SDS011;3221;48.858;10.128;2023-07-13T14:28:23;2.55;;;1.50;;
6376;SDS011;3221;48.858;10.128;2023-07-13T14:30:53;5.28;;;2.17;;
6376;SDS011;3221;48.858;10.128;2023-07-13T14:33:23;6.07;;;1.95;;
6376;SDS011;3221;48.858;10.128;2023-07-13T14:35:50;2.30;;;1.65;;
6376;SDS011;3221;48.858;10.128;2023-07-13T14:38:19;2.50;;;1.80;;
6376;SDS011;3221;48.858;10.128;2023-07-13T14:40:47;4.03;;;2.25;;
6376;SDS011;3221;48.858;10.128;2023-07-13T14:43:14;2.08;;;1.80;;
6376;SDS011;3221;48.858;10.128;2023-07-13T14:45:44;4.65;;;2.03;;
6376;SDS011;3221;48.858;10.128;2023-07-13T14:48:17;4.05;;;1.85;;
6376;SDS011;3221;48.858;10.128;2023-07-13T14:50:50;4.15;;;2.08;;
6376;SDS011;3221;48.858;10.128;2023-07-13T14:53:21;2.78;;;1.83;;
6376;SDS011;3221;48.858;10.128;2023-07-13T14:55:48;2.85;;;1.67;;
6376;SDS011;3221;48.858;10.128;2023-07-13T14:58:15;2.85;;;2.08;;
6376;SDS011;3221;48.858;10.128;2023-07-13T15:00:43;2.28;;;1.75;;
6376;SDS011;3221;48.858;10.128;2023-07-13T15:03:15;2.25;;;1.60;;
6376;SDS011;3221;48.858;10.128;2023-07-13T15:05:48;2.63;;;2.10;;
6376;SDS011;3221;48.858;10.128;2023-07-13T15:08:15;1.75;;;1.60;;
6376;SDS011;3221;48.858;10.128;2023-07-13T15:10:42;2.38;;;1.90;;
6376;SDS011;3221;48.858;10.128;2023-07-13T15:15:42;3.97;;;3.33;;
6376;SDS011;3221;48.858;10.128;2023-07-13T15:18:14;4.45;;;2.70;;
6376;SDS011;3221;48.858;10.128;2023-07-13T15:20:44;3.35;;;3.05;;
6376;SDS011;3221;48.858;10.128;2023-07-13T15:23:12;4.68;;;2.88;;
6376;SDS011;3221;48.858;10.128;2023-07-13T15:25:46;2.17;;;1.80;;
6376;SDS011;3221;48.858;10.128;2023-07-13T15:28:14;2.60;;;2.30;;
6376;SDS011;3221;48.858;10.128;2023-07-13T15:30:42;3.42;;;1.92;;
6376;SDS011;3221;48.858;10.128;2023-07-13T15:33:22;2.80;;;1.70;;
6376;SDS011;3221;48.858;10.128;2023-07-13T15:35:53;2.78;;;1.63;;
6376;SDS011;3221;48.858;10.128;2023-07-13T15:38:23;3.22;;;1.90;;
6376;SDS011;3221;48.858;10.128;2023-07-13T15:40:52;4.38;;;2.03;;
6376;SDS011;3221;48.858;10.128;2023-07-13T15:43:19;4.97;;;2.03;;
6376;SDS011;3221;48.858;10.128;2023-07-13T15:45:47;5.40;;;2.13;;
6376;SDS011;3221;48.858;10.128;2023-07-13T15:48:18;2.75;;;1.80;;
6376;SDS011;3221;48.858;10.128;2023-07-13T15:50:51;1.60;;;1.50;;
6376;SDS011;3221;48.858;10.128;2023-07-13T15:53:22;2.67;;;1.70;;
6376;SDS011;3221;48.858;10.128;2023-07-13T15:55:51;3.35;;;1.80;;